Map

Track Data

SID SEASON NUMBER BASIN SUBBASIN NAME ISO_TIME NATURE LAT LON WMO_WIND WMO_PRES WMO_AGENCY TRACK_TYPE DIST2LAND LANDFALL IFLAG USA_AGENCY USA_ATCF_ID USA_LAT USA_LON USA_RECORD USA_STATUS USA_WIND USA_PRES USA_SSHS USA_R34_NE USA_R34_SE USA_R34_SW USA_R34_NW USA_R50_NE USA_R50_SE USA_R50_SW USA_R50_NW USA_R64_NE USA_R64_SE USA_R64_SW USA_R64_NW USA_POCI USA_ROCI USA_RMW USA_EYE TOKYO_LAT TOKYO_LON TOKYO_GRADE TOKYO_WIND TOKYO_PRES TOKYO_R50_DIR TOKYO_R50_LONG TOKYO_R50_SHORT TOKYO_R30_DIR TOKYO_R30_LONG TOKYO_R30_SHORT TOKYO_LAND CMA_LAT CMA_LON CMA_CAT CMA_WIND CMA_PRES HKO_LAT HKO_LON HKO_CAT HKO_WIND HKO_PRES NEWDELHI_LAT NEWDELHI_LON NEWDELHI_GRADE NEWDELHI_WIND NEWDELHI_PRES NEWDELHI_CI NEWDELHI_DP NEWDELHI_POCI REUNION_LAT REUNION_LON REUNION_TYPE REUNION_WIND REUNION_PRES REUNION_TNUM REUNION_CI REUNION_RMW REUNION_R34_NE REUNION_R34_SE REUNION_R34_SW REUNION_R34_NW REUNION_R50_NE REUNION_R50_SE REUNION_R50_SW REUNION_R50_NW REUNION_R64_NE REUNION_R64_SE REUNION_R64_SW REUNION_R64_NW BOM_LAT BOM_LON BOM_TYPE BOM_WIND BOM_PRES BOM_TNUM BOM_CI BOM_RMW BOM_R34_NE BOM_R34_SE BOM_R34_SW BOM_R34_NW BOM_R50_NE BOM_R50_SE BOM_R50_SW BOM_R50_NW BOM_R64_NE BOM_R64_SE BOM_R64_SW BOM_R64_NW BOM_ROCI BOM_POCI BOM_EYE BOM_POS_METHOD BOM_PRES_METHOD NADI_LAT NADI_LON NADI_CAT NADI_WIND NADI_PRES WELLINGTON_LAT WELLINGTON_LON WELLINGTON_WIND WELLINGTON_PRES DS824_LAT DS824_LON DS824_STAGE DS824_WIND DS824_PRES TD9636_LAT TD9636_LON TD9636_STAGE TD9636_WIND TD9636_PRES TD9635_LAT TD9635_LON TD9635_WIND TD9635_PRES TD9635_ROCI NEUMANN_LAT NEUMANN_LON NEUMANN_CLASS NEUMANN_WIND NEUMANN_PRES MLC_LAT MLC_LON MLC_CLASS MLC_WIND MLC_PRES USA_GUST BOM_GUST BOM_GUST_PER REUNION_GUST REUNION_GUST_PER USA_SEAHGT USA_SEARAD_NE USA_SEARAD_SE USA_SEARAD_SW USA_SEARAD_NW STORM_SPEED STORM_DIR
1891240N13339 1891 25 NA NA NOT_NAMED 1891-08-27 12:00:00 TS 12.5000 -20.6000 main 412 412 _____________O -1 12.5000 -20.6000 TD 25 18 277
1891240N13339 1891 25 NA NA NOT_NAMED 1891-08-27 15:00:00 TS 12.6106 -21.4998 main 492 492 _____________P -1 12.6106 -21.4998 TD 27 18 276
1891240N13339 1891 25 NA NA NOT_NAMED 1891-08-27 18:00:00 TS 12.7000 -22.4000 main 574 574 _____________O -1 12.7000 -22.4000 TD 30 18 275
1891240N13339 1891 25 NA NA NOT_NAMED 1891-08-27 21:00:00 TS 12.7572 -23.3001 main 661 661 _____________P -1 12.7572 -23.3001 TD 32 18 273
1891240N13339 1891 25 NA NA NOT_NAMED 1891-08-28 00:00:00 TS 12.8000 -24.2000 main 754 754 _____________O -1 12.8000 -24.2000 TS 35 18 273
1891240N13339 1891 25 NA NA NOT_NAMED 1891-08-28 03:00:00 TS 12.8497 -25.1000 main 848 848 _____________P -1 12.8497 -25.1000 TS 40 18 273
1891240N13339 1891 25 NA NA NOT_NAMED 1891-08-28 06:00:00 TS 12.9000 -26.0000 main 940 940 _____________O -1 12.9000 -26.0000 TS 45 18 273
1891240N13339 1891 25 NA NA NOT_NAMED 1891-08-28 09:00:00 TS 12.9422 -26.9001 main 1035 1035 _____________P -1 12.9422 -26.9001 TS 50 18 273
1891240N13339 1891 25 NA NA NOT_NAMED 1891-08-28 12:00:00 TS 13.0000 -27.8000 main 1128 1128 _____________O -1 13.0000 -27.8000 TS 55 18 275
1891240N13339 1891 25 NA NA NOT_NAMED 1891-08-28 15:00:00 TS 13.0847 -28.7001 main 1222 1222 _____________P -1 13.0847 -28.7001 TS 55 18 277
1891240N13339 1891 25 NA NA NOT_NAMED 1891-08-28 18:00:00 TS 13.2000 -29.6000 main 1317 1317 _____________O -1 13.2000 -29.6000 TS 55 18 278
1891240N13339 1891 25 NA NA NOT_NAMED 1891-08-28 21:00:00 TS 13.3422 -30.5000 main 1411 1410 _____________P -1 13.3422 -30.5000 TS 55 18 280
1891240N13339 1891 25 NA NA NOT_NAMED 1891-08-29 00:00:00 TS 13.5000 -31.4000 main 1505 1505 _____________O -1 13.5000 -31.4000 TS 55 18 280
1891240N13339 1891 25 NA NA NOT_NAMED 1891-08-29 03:00:00 TS 13.6498 -32.3151 main 1601 1601 _____________P -1 13.6498 -32.3151 TS 55 18 280
1891240N13339 1891 25 NA NA NOT_NAMED 1891-08-29 06:00:00 TS 13.8000 -33.2000 main 1695 1695 _____________O -1 13.8000 -33.2000 TS 55 17 280
1891240N13339 1891 25 NA NA NOT_NAMED 1891-08-29 09:00:00 TS 13.9496 -34.0151 main 1780 1780 _____________P -1 13.9496 -34.0151 TS 55 16 281
1891240N13339 1891 25 NA NA NOT_NAMED 1891-08-29 12:00:00 TS 14.1000 -34.8000 main 1864 1864 _____________O -1 14.1000 -34.8000 TS 55 16 281
1891240N13339 1891 25 NA NA NOT_NAMED 1891-08-29 15:00:00 TS 14.2497 -35.6001 main 1950 1949 _____________P -1 14.2497 -35.6001 TS 52 16 281
1891240N13339 1891 25 NA NA NOT_NAMED 1891-08-29 18:00:00 TS 14.4000 -36.4000 main 1974 1922 _____________O -1 14.4000 -36.4000 TS 50 16 281
1891240N13339 1891 25 NA NA NOT_NAMED 1891-08-29 21:00:00 TS 14.5497 -37.2001 main 1922 1865 _____________P -1 14.5497 -37.2001 TS 50 16 281
1891240N13339 1891 25 NA NA NOT_NAMED 1891-08-30 00:00:00 TS 14.7000 -38.0000 main 1865 1805 _____________O -1 14.7000 -38.0000 TS 50 16 281
1891240N13339 1891 25 NA NA NOT_NAMED 1891-08-30 03:00:00 TS 14.8572 -38.8000 main 1812 1754 _____________P -1 14.8572 -38.8000 TS 50 16 281
1891240N13339 1891 25 NA NA NOT_NAMED 1891-08-30 06:00:00 TS 15.0000 -39.6000 main 1754 1699 _____________O -1 15.0000 -39.6000 TS 50 16 279
1891240N13339 1891 25 NA NA NOT_NAMED 1891-08-30 09:00:00 TS 15.1072 -40.4002 main 1699 1647 _____________P -1 15.1072 -40.4002 TS 50 16 277
1891240N13339 1891 25 NA NA NOT_NAMED 1891-08-30 12:00:00 TS 15.2000 -41.2000 main 1647 1598 _____________O -1 15.2000 -41.2000 TS 50 16 277
1891240N13339 1891 25 NA NA NOT_NAMED 1891-08-30 15:00:00 TS 15.2922 -42.0002 main 1598 1552 _____________P -1 15.2922 -42.0002 TS 47 16 277
1891240N13339 1891 25 NA NA NOT_NAMED 1891-08-30 18:00:00 TS 15.4000 -42.8000 main 1552 1511 _____________O -1 15.4000 -42.8000 TS 45 16 279
1891240N13339 1891 25 NA NA NOT_NAMED 1891-08-30 21:00:00 TS 15.5422 -43.6000 main 1511 1478 _____________P -1 15.5422 -43.6000 TS 45 16 281
1891240N13339 1891 25 NA NA NOT_NAMED 1891-08-31 00:00:00 TS 15.7000 -44.4000 main 1478 1436 _____________O -1 15.7000 -44.4000 TS 45 16 281
1891240N13339 1891 25 NA NA NOT_NAMED 1891-08-31 03:00:00 TS 15.8422 -45.2002 main 1436 1408 _____________P -1 15.8422 -45.2002 TS 45 16 281
1891240N13339 1891 25 NA NA NOT_NAMED 1891-08-31 06:00:00 TS 16.0000 -46.0000 main 1408 1385 _____________O -1 16.0000 -46.0000 TS 45 16 283
1891240N13339 1891 25 NA NA NOT_NAMED 1891-08-31 09:00:00 TS 16.1922 -46.8001 main 1385 1365 _____________P -1 16.1922 -46.8001 TS 45 16 285
1891240N13339 1891 25 NA NA NOT_NAMED 1891-08-31 12:00:00 TS 16.4000 -47.6000 main 1366 1350 _____________O -1 16.4000 -47.6000 TS 45 16 285
1891240N13339 1891 25 NA NA NOT_NAMED 1891-08-31 15:00:00 TS 16.5997 -48.4002 main 1353 1335 _____________P -1 16.5997 -48.4002 TS 42 16 285
1891240N13339 1891 25 NA NA NOT_NAMED 1891-08-31 18:00:00 TS 16.8000 -49.2000 main 1336 1321 _____________O -1 16.8000 -49.2000 TS 40 16 285
1891240N13339 1891 25 NA NA NOT_NAMED 1891-08-31 21:00:00 TS 16.9997 -50.0002 main 1324 1314 _____________P -1 16.9997 -50.0002 TS 40 16 285
1891240N13339 1891 25 NA NA NOT_NAMED 1891-09-01 00:00:00 TS 17.2000 -50.8000 main 1318 1261 _____________O -1 17.2000 -50.8000 TS 40 16 284
1891240N13339 1891 25 NA NA NOT_NAMED 1891-09-01 03:00:00 TS 17.3922 -51.6003 main 1261 1206 _____________P -1 17.3922 -51.6003 TS 40 16 285
1891240N13339 1891 25 NA NA NOT_NAMED 1891-09-01 06:00:00 TS 17.6000 -52.4000 main 1206 1156 _____________O -1 17.6000 -52.4000 TS 40 16 287
1891240N13339 1891 25 NA NA NOT_NAMED 1891-09-01 09:00:00 TS 17.8497 -53.2000 main 1156 1119 _____________P -1 17.8497 -53.2000 TS 40 16 288
1891240N13339 1891 25 NA NA NOT_NAMED 1891-09-01 12:00:00 TS 18.1000 -54.0000 main 1119 1081 _____________O -1 18.1000 -54.0000 TS 40 16 287
1891240N13339 1891 25 NA NA NOT_NAMED 1891-09-01 15:00:00 TS 18.3073 -54.8152 main 1081 1048 _____________P -1 18.3073 -54.8152 TS 37 16 285
1891240N13339 1891 25 NA NA NOT_NAMED 1891-09-01 18:00:00 TS 18.5000 -55.6000 main 1048 980 _____________O -1 18.5000 -55.6000 TS 35 15 285
1891240N13339 1891 25 NA NA NOT_NAMED 1891-09-01 21:00:00 TS 18.6997 -56.3301 main 980 907 _____________P -1 18.6997 -56.3301 TS 35 14 287
1891240N13339 1891 25 NA NA NOT_NAMED 1891-09-02 00:00:00 TS 18.9000 -57.0000 main 907 845 _____________O -1 18.9000 -57.0000 TS 35 13 288
1891240N13339 1891 25 NA NA NOT_NAMED 1891-09-02 03:00:00 TS 19.0998 -57.6301 main 845 785 _____________P -1 19.0998 -57.6301 TS 35 12 289
1891240N13339 1891 25 NA NA NOT_NAMED 1891-09-02 06:00:00 TS 19.3000 -58.2000 35 hurdat_atl main 785 735 O____________O hurdat_atl AL041891 19.3000 -58.2000 TS 35 0 19.3000 -58.2000 TS 35 11 292
1891240N13339 1891 25 NA NA NOT_NAMED 1891-09-02 09:00:00 TS 19.5176 -58.7236 main 735 688 P____________P AL041891 19.5204 -58.7171 TS 37 0 19.5148 -58.7300 TS 35 10 293
1891240N13339 1891 25 NA NA NOT_NAMED 1891-09-02 12:00:00 TS 19.7000 -59.2000 40 hurdat_atl main 688 649 O____________O hurdat_atl AL041891 19.7000 -59.2000 TS 40 0 19.7000 -59.2000 TS 35 9 289
1891240N13339 1891 25 NA NA NOT_NAMED 1891-09-02 15:00:00 TS 19.8148 -59.6227 main 649 611 P____________P AL041891 19.8148 -59.6227 TS 40 0 19.8148 -59.6227 TS 35 8 285
1891240N13339 1891 25 NA NA NOT_NAMED 1891-09-02 18:00:00 TS 19.9000 -60.0000 40 hurdat_atl main 611 584 O____________O hurdat_atl AL041891 19.9000 -60.0000 TS 40 0 19.9000 -60.0000 TS 35 7 285
1891240N13339 1891 25 NA NA NOT_NAMED 1891-09-02 21:00:00 TS 19.9923 -60.3501 main 574 548 P____________P AL041891 19.9923 -60.3501 TS 42 0 19.9923 -60.3501 TS 35 7 287
1891240N13339 1891 25 NA NA NOT_NAMED 1891-09-03 00:00:00 TS 20.1000 -60.7000 45 hurdat_atl main 548 513 O____________O hurdat_atl AL041891 20.1000 -60.7000 TS 45 0 20.1000 -60.7000 TS 35 7 289
1891240N13339 1891 25 NA NA NOT_NAMED 1891-09-03 03:00:00 TS 20.2350 -61.0926 main 513 484 P____________P AL041891 20.2350 -61.0926 TS 47 0 20.2350 -61.0926 TS 37 8 292
1891240N13339 1891 25 NA NA NOT_NAMED 1891-09-03 06:00:00 TS 20.4000 -61.5000 50 hurdat_atl main 484 459 O____________O hurdat_atl AL041891 20.4000 -61.5000 TS 50 0 20.4000 -61.5000 TS 40 8 295
1891240N13339 1891 25 NA NA NOT_NAMED 1891-09-03 09:00:00 TS 20.5849 -61.9001 main 459 437 P____________P AL041891 20.5849 -61.9001 TS 52 0 20.5849 -61.9001 TS 40 9 298
1891240N13339 1891 25 NA NA NOT_NAMED 1891-09-03 12:00:00 TS 20.8000 -62.3000 55 hurdat_atl main 437 420 O____________O hurdat_atl AL041891 20.8000 -62.3000 TS 55 0 20.8000 -62.3000 TS 40 9 301
1891240N13339 1891 25 NA NA NOT_NAMED 1891-09-03 15:00:00 TS 21.0424 -62.7001 main 420 413 P____________P AL041891 21.0424 -62.7001 TS 57 0 21.0424 -62.7001 TS 40 9 304
1891240N13339 1891 25 NA NA NOT_NAMED 1891-09-03 18:00:00 TS 21.3000 -63.1000 60 hurdat_atl main 416 410 O____________O hurdat_atl AL041891 21.3000 -63.1000 TS 60 0 21.3000 -63.1000 TS 40 9 304
1891240N13339 1891 25 NA NA NOT_NAMED 1891-09-03 21:00:00 TS 21.5499 -63.5001 main 410 409 P____________P AL041891 21.5499 -63.5001 TS 65 1 21.5499 -63.5001 TS 40 9 304
1891240N13339 1891 25 NA NA NOT_NAMED 1891-09-04 00:00:00 TS 21.8000 -63.9000 70 hurdat_atl main 419 415 O____________O hurdat_atl AL041891 21.8000 -63.9000 HU 70 1 21.8000 -63.9000 TS 40 9 304
1891240N13339 1891 25 NA NA NOT_NAMED 1891-09-04 03:00:00 TS 22.0499 -64.3001 main 424 424 P____________P AL041891 22.0499 -64.3001 HU 72 1 22.0499 -64.3001 TS 42 9 304
1891240N13339 1891 25 NA NA NOT_NAMED 1891-09-04 06:00:00 TS 22.3000 -64.7000 75 hurdat_atl main 446 444 O____________O hurdat_atl AL041891 22.3000 -64.7000 HU 75 1 22.3000 -64.7000 TS 45 9 303
1891240N13339 1891 25 NA NA NOT_NAMED 1891-09-04 09:00:00 TS 22.5425 -65.1077 main 461 461 P____________P AL041891 22.5425 -65.1077 HU 77 1 22.5425 -65.1077 TS 45 9 304
1891240N13339 1891 25 NA NA NOT_NAMED 1891-09-04 12:00:00 TS 22.8000 -65.5000 80 hurdat_atl main 492 492 O____________O hurdat_atl AL041891 22.8000 -65.5000 HU 80 1 22.8000 -65.5000 TS 45 9 309
1891240N13339 1891 25 NA NA NOT_NAMED 1891-09-04 15:00:00 TS 23.0999 -65.8576 main 525 525 P____________P AL041891 23.0999 -65.8576 HU 82 1 23.0999 -65.8576 TS 45 9 313
1891240N13339 1891 25 NA NA NOT_NAMED 1891-09-04 18:00:00 TS 23.4000 -66.2000 85 hurdat_atl main 559 553 O____________O hurdat_atl AL041891 23.4000 -66.2000 HU 85 2 23.4000 -66.2000 TS 45 8 310
1891240N13339 1891 25 NA NA NOT_NAMED 1891-09-04 21:00:00 TS 23.6424 -66.5503 main 556 556 P____________P AL041891 23.6424 -66.5503 HU 85 2 23.6424 -66.5503 TS 45 8 308
1891240N13339 1891 25 NA NA NOT_NAMED 1891-09-05 00:00:00 TS 23.9000 -66.9000 85 hurdat_atl main 570 570 O____________O hurdat_atl AL041891 23.9000 -66.9000 HU 85 2 23.9000 -66.9000 TS 45 9 313
1891240N13339 1891 25 NA NA NOT_NAMED 1891-09-05 03:00:00 TS 24.2424 -67.2500 main 584 584 P____________P AL041891 24.2424 -67.2500 HU 85 2 24.2424 -67.2500 TS 47 10 318
1891240N13339 1891 25 NA NA NOT_NAMED 1891-09-05 06:00:00 TS 24.6000 -67.6000 85 hurdat_atl main 611 611 O____________O hurdat_atl AL041891 24.6000 -67.6000 HU 85 2 24.6000 -67.6000 TS 50 9 316
1891240N13339 1891 25 NA NA NOT_NAMED 1891-09-05 09:00:00 TS 24.8924 -67.9504 main 627 627 P____________P AL041891 24.8924 -67.9504 HU 85 2 24.8924 -67.9504 TS 52 9 313
1891240N13339 1891 25 NA NA NOT_NAMED 1891-09-05 12:00:00 TS 25.2000 -68.3000 85 hurdat_atl main 648 648 O____________O hurdat_atl AL041891 25.2000 -68.3000 HU 85 2 25.2000 -68.3000 TS 55 9 317
1891240N13339 1891 25 NA NA NOT_NAMED 1891-09-05 15:00:00 TS 25.5624 -68.6503 main 658 658 P____________P AL041891 25.5624 -68.6503 HU 85 2 25.5624 -68.6503 TS 57 10 322
1891240N13339 1891 25 NA NA NOT_NAMED 1891-09-05 18:00:00 TS 26.0000 -69.0000 85 hurdat_atl main 673 673 O____________O hurdat_atl AL041891 26.0000 -69.0000 HU 85 2 26.0000 -69.0000 TS 60 12 326
1891240N13339 1891 25 NA NA NOT_NAMED 1891-09-05 21:00:00 TS 26.5200 -69.3576 main 696 696 P____________P AL041891 26.5200 -69.3576 HU 85 2 26.5200 -69.3576 TS 60 13 330
1891240N13339 1891 25 NA NA NOT_NAMED 1891-09-06 00:00:00 TS 27.1000 -69.7000 85 hurdat_atl main 739 739 O____________O hurdat_atl AL041891 27.1000 -69.7000 HU 85 2 27.1000 -69.7000 TS 60 13 334
1891240N13339 1891 25 NA NA NOT_NAMED 1891-09-06 03:00:00 TS 27.6848 -70.0006 main 787 787 P____________P AL041891 27.6848 -70.0006 HU 85 2 27.6848 -70.0006 TS 65 13 336
1891240N13339 1891 25 NA NA NOT_NAMED 1891-09-06 06:00:00 TS 28.3000 -70.3000 85 hurdat_atl main 838 835 O____________O hurdat_atl AL041891 28.3000 -70.3000 HU 85 2 28.3000 -70.3000 HU 70 14 335
1891240N13339 1891 25 NA NA NOT_NAMED 1891-09-06 09:00:00 TS 28.9201 -70.6625 main 837 768 P____________P AL041891 28.9351 -70.6649 HU 85 2 28.8901 -70.6579 HU 72 14 335
1891240N13339 1891 25 NA NA NOT_NAMED 1891-09-06 12:00:00 TS 29.6000 -71.0000 85 hurdat_atl main 768 697 O____________O hurdat_atl AL041891 29.6000 -71.0000 HU 85 2 29.6000 -71.0000 HU 75 15 340
1891240N13339 1891 25 NA NA NOT_NAMED 1891-09-06 15:00:00 TS 30.3624 -71.2520 main 682 614 P____________P AL041891 30.2699 -71.2452 HU 85 2 30.5474 -71.2655 HU 77 16 347
1891240N13339 1891 25 NA NA NOT_NAMED 1891-09-06 18:00:00 TS 31.2000 -71.4333 85 hurdat_atl main 614 542 O____________O hurdat_atl AL041891 31.0000 -71.4000 HU 85 2 31.6000 -71.5000 HU 80 17 351
1891240N13339 1891 25 NA NA NOT_NAMED 1891-09-06 21:00:00 TS 32.0725 -71.5801 main 535 474 P____________P AL041891 31.8050 -71.4949 HU 85 2 32.6074 -71.7505 HU 82 18 354
1891240N13339 1891 25 NA NA NOT_NAMED 1891-09-07 00:00:00 TS 33.0000 -71.6667 85 hurdat_atl main 467 397 O____________O hurdat_atl AL041891 32.7000 -71.5000 HU 85 2 33.6000 -72.0000 HU 85 19 355
1891240N13339 1891 25 NA NA NOT_NAMED 1891-09-07 03:00:00 TS 33.9631 -71.7735 main 391 358 P____________P AL041891 33.6697 -71.4807 HU 85 2 34.5499 -72.3591 HU 85 20 359
1891240N13339 1891 25 NA NA NOT_NAMED 1891-09-07 06:00:00 TS 34.9667 -71.7000 85 hurdat_atl main 354 349 O____________O hurdat_atl AL041891 34.7000 -71.3000 HU 85 2 35.5000 -72.5000 HU 85 985 20 10
1891240N13339 1891 25 NA NA NOT_NAMED 1891-09-07 09:00:00 TS 35.9412 -71.3706 main 368 368 P____________P AL041891 35.6962 -70.9526 HU 85 2 36.4313 -72.2064 HU 85 22 21
1891240N13339 1891 25 NA NA NOT_NAMED 1891-09-07 12:00:00 TS 37.0333 -70.7000 85 hurdat_atl main 412 370 O____________O hurdat_atl AL041891 36.8000 -70.3000 HU 85 2 37.5000 -71.5000 HU 85 27 29
1891240N13339 1891 25 NA NA NOT_NAMED 1891-09-07 15:00:00 TS 38.3133 -69.7361 main 366 255 P____________P AL041891 38.0738 -69.3248 HU 85 2 38.7924 -70.5585 HU 85 33 33
1891240N13339 1891 25 NA NA NOT_NAMED 1891-09-07 18:00:00 TS 39.7667 -68.4000 85 hurdat_atl main 250 233 O____________O hurdat_atl AL041891 39.5000 -68.0000 HU 85 2 40.3000 -69.2000 HU 85 38 37
1891240N13339 1891 25 NA NA NOT_NAMED 1891-09-07 21:00:00 TS 41.3669 -66.7381 main 247 74 P____________P AL041891 41.0127 -66.4016 HU 82 1 42.0755 -67.4113 HU 82 42 40
1891240N13339 1891 25 NA NA NOT_NAMED 1891-09-08 00:00:00 TS 42.9667 -64.8333 80 hurdat_atl main 68 40 O____________O hurdat_atl AL041891 42.6000 -64.6000 HU 80 1 43.7000 -65.3000 HU 80 41 43
1891240N13339 1891 25 NA NA NOT_NAMED 1891-09-08 03:00:00 TS 44.3547 -62.8729 main 33 0 P____________P AL041891 44.2228 -62.7197 HU 77 1 44.6185 -63.1793 HU 77 39 46
1891240N13339 1891 25 NA NA NOT_NAMED 1891-09-08 06:00:00 TS 45.7000 -60.9333 75 hurdat_atl main 0 0 O____________O hurdat_atl AL041891 45.8000 -60.9000 HU 75 1 45.5000 -61.0000 HU 75 39 43
1891240N13339 1891 25 NA NA NOT_NAMED 1891-09-08 09:00:00 TS 47.1824 -59.0352 main 44 0 P____________P AL041891 47.2643 -59.2948 HU 72 1 47.0186 -58.5160 HU 72 38 40
1891240N13339 1891 25 NA NA NOT_NAMED 1891-09-08 12:00:00 TS 48.6000 -57.3667 70 hurdat_atl main 0 0 O____________O hurdat_atl AL041891 48.6000 -57.9000 HU 70 1 48.6000 -56.3000 HU 70 33 37
1891240N13339 1891 25 NA NA NOT_NAMED 1891-09-08 15:00:00 TS 49.8127 -56.0769 main 0 0 P____________P AL041891 49.8073 -56.6310 HU 67 1 49.8236 -54.9686 HU 67 27 33
1891240N13339 1891 25 NA NA NOT_NAMED 1891-09-08 18:00:00 TS 50.9000 -55.0333 65 hurdat_atl main 53 49 O____________O hurdat_atl AL041891 50.9000 -55.5000 HU 65 1 50.9000 -54.1000 HU 65 25 32
1891240N13339 1891 25 NA NA NOT_NAMED 1891-09-08 21:00:00 TS 51.9362 -53.9502 main 112 112 P____________P AL041891 51.9359 -54.3787 HU 62 0 51.9366 -53.0932 HU 62 24 33
1891240N13339 1891 25 NA NA NOT_NAMED 1891-09-09 00:00:00 ET 52.9000 -52.9333 60 hurdat_atl main 189 189 O____________O hurdat_atl AL041891 52.9000 -53.3000 EX 60 -4 52.9000 -52.2000 EX 60 23 33
1891240N13339 1891 25 NA NA NOT_NAMED 1891-09-09 03:00:00 ET 53.8368 -51.9216 main 262 262 P____________P AL041891 53.8370 -52.1748 EX 57 -4 53.8363 -51.4152 EX 57 21 33
1891240N13339 1891 25 NA NA NOT_NAMED 1891-09-09 06:00:00 ET 54.7000 -50.9667 55 hurdat_atl main 345 345 O____________O hurdat_atl AL041891 54.7000 -51.1000 EX 55 -4 54.7000 -50.7000 EX 55 20 33
1891240N13339 1891 25 NA NA NOT_NAMED 1891-09-09 09:00:00 ET 55.4865 -50.0589 main 432 432 P____________P AL041891 55.4864 -50.1078 EX 52 -4 55.4867 -49.9610 EX 52 18 34
1891240N13339 1891 25 NA NA NOT_NAMED 1891-09-09 12:00:00 ET 56.2000 -49.2000 50 hurdat_atl main 490 399 O____________O hurdat_atl AL041891 56.2000 -49.2000 EX 50 -4 56.2000 -49.2000 EX 50 17 34
1891240N13339 1891 25 NA NA NOT_NAMED 1891-09-09 15:00:00 ET 56.8869 -48.3352 main 396 316 P____________P AL041891 56.8867 -48.3246 EX 47 -4 56.8873 -48.3563 EX 47 16 36
1891240N13339 1891 25 NA NA NOT_NAMED 1891-09-09 18:00:00 ET 57.5000 -47.5000 45 hurdat_atl main 316 246 O____________O hurdat_atl AL041891 57.5000 -47.5000 EX 45 -4 57.5000 -47.5000 EX 45 15 38
1891240N13339 1891 25 NA NA NOT_NAMED 1891-09-09 21:00:00 ET 58.0446 -46.6754 main 246 177 P____________P AL041891 58.0446 -46.6754 EX 42 -4 58.0446 -46.6754 EX 42 13 40
1891240N13339 1891 25 NA NA NOT_NAMED 1891-09-10 00:00:00 ET 58.5000 -45.9000 40 hurdat_atl main 177 123 O____________O hurdat_atl AL041891 58.5000 -45.9000 EX 40 -4 58.5000 -45.9000 EX 40 11 43
1891240N13339 1891 25 NA NA NOT_NAMED 1891-09-10 03:00:00 ET 58.8871 -45.1679 main 123 88 P____________P AL041891 58.8871 -45.1679 EX 37 -4 58.8871 -45.1679 EX 37 10 46
1891240N13339 1891 25 NA NA NOT_NAMED 1891-09-10 06:00:00 ET 59.2000 -44.5000 35 hurdat_atl main 88 70 O____________O hurdat_atl AL041891 59.2000 -44.5000 EX 35 -4 59.2000 -44.5000 EX 35 9 49
1891240N13339 1891 25 NA NA NOT_NAMED 1891-09-10 09:00:00 ET 59.4630 -43.8867 main 67 44 P____________P AL041891 59.4630 -43.8867 EX 32 -4 59.4630 -43.8867 EX 32 8 51
1891240N13339 1891 25 NA NA NOT_NAMED 1891-09-10 12:00:00 ET 59.7000 -43.3000 30 hurdat_atl main 44 O____________O hurdat_atl AL041891 59.7000 -43.3000 EX 30 -4 59.7000 -43.3000 EX 30 8 51

About IBTrACS Database

This database is a web-friendly format of International Best Track Archive for Climate Stewardship (IBTrACS), a global best track data archive curated by NOAA dating back to 1842.

Updated: 2021-12-03